createdAt,value
2018-08-19T00:01:45.373Z,101661.69
2018-08-19T00:04:14.583Z,101658.84
2018-08-19T00:06:43.872Z,101654.99
2018-08-19T00:09:12.452Z,101655.94
2018-08-19T00:11:41.620Z,101655.00
2018-08-19T00:14:24.774Z,101660.64
2018-08-19T00:16:53.839Z,101656.85
2018-08-19T00:19:22.247Z,101650.63
2018-08-19T00:21:50.778Z,101647.71
2018-08-19T00:24:19.140Z,101649.19
2018-08-19T00:26:47.699Z,101652.89
2018-08-19T00:29:22.559Z,101651.28
2018-08-19T00:31:51.625Z,101647.01
2018-08-19T00:34:30.446Z,101649.84
2018-08-19T00:36:59.818Z,101640.81
2018-08-19T00:39:28.233Z,101644.52
2018-08-19T00:41:57.153Z,101655.02
2018-08-19T00:44:25.608Z,101656.67
2018-08-19T00:46:55.345Z,101658.30
2018-08-19T00:49:23.792Z,101658.89
2018-08-19T00:51:59.239Z,101657.43
2018-08-19T00:54:28.743Z,101652.09
2018-08-19T00:56:58.253Z,101653.27
2018-08-19T00:59:28.369Z,101658.52
2018-08-19T01:01:56.807Z,101656.66
2018-08-19T01:04:25.536Z,101659.48
2018-08-19T01:06:55.043Z,101652.87
2018-08-19T01:09:30.720Z,101658.31
2018-08-19T01:11:59.278Z,101659.85
2018-08-19T01:14:27.658Z,101661.70
2018-08-19T01:16:56.139Z,101655.20
2018-08-19T01:19:24.988Z,101660.91
2018-08-19T01:21:54.127Z,101664.91
2018-08-19T01:24:23.400Z,101661.30
2018-08-19T01:26:51.863Z,101663.84
2018-08-19T01:29:37.291Z,101663.66
2018-08-19T01:32:12.009Z,101665.11
2018-08-19T01:34:43.649Z,101671.69
2018-08-19T01:37:12.488Z,101674.50
2018-08-19T01:39:40.942Z,101672.94
2018-08-19T01:42:09.728Z,101678.38
2018-08-19T01:44:38.208Z,101676.92
2018-08-19T01:47:06.586Z,101673.58
2018-08-19T01:49:34.998Z,101676.30
2018-08-19T01:52:03.549Z,101668.36
2018-08-19T01:54:32.030Z,101669.97
2018-08-19T01:57:02.383Z,101672.23
2018-08-19T01:59:33.092Z,101679.03
2018-08-19T02:02:03.641Z,101679.84
2018-08-19T02:04:33.255Z,101677.41
2018-08-19T02:07:02.127Z,101678.83
2018-08-19T02:09:30.562Z,101682.24
2018-08-19T02:12:00.010Z,101680.89
2018-08-19T02:14:28.409Z,101671.77
2018-08-19T02:16:57.477Z,101674.76
2018-08-19T02:19:25.855Z,101677.58
2018-08-19T02:21:54.539Z,101677.66
2018-08-19T02:24:23.635Z,101682.49
2018-08-19T02:26:52.015Z,101679.88
2018-08-19T02:29:36.983Z,101674.24
2018-08-19T02:32:10.676Z,101672.33
2018-08-19T02:34:40.398Z,101671.80
2018-08-19T02:37:10.108Z,101670.34
2018-08-19T02:39:40.948Z,101666.09
2018-08-19T02:42:27.447Z,101666.86
2018-08-19T02:45:03.335Z,101659.69
2018-08-19T02:47:32.403Z,101656.77
2018-08-19T02:50:00.880Z,101659.38
2018-08-19T02:52:31.417Z,101655.48
2018-08-19T02:55:02.039Z,101655.75
2018-08-19T02:57:31.753Z,101659.27
2018-08-19T03:00:01.162Z,101652.28
2018-08-19T03:02:34.415Z,101657.81
2018-08-19T03:05:04.773Z,101658.27
2018-08-19T03:07:33.386Z,101660.87
2018-08-19T03:10:09.107Z,101652.41
2018-08-19T03:12:37.801Z,101655.55
2018-08-19T03:15:08.764Z,101651.58
2018-08-19T03:17:37.158Z,101655.44
2018-08-19T03:20:08.494Z,101655.30
2018-08-19T03:22:36.841Z,101658.02
2018-08-19T03:25:05.698Z,101662.78
2018-08-19T03:27:34.080Z,101659.20
2018-08-19T03:30:03.627Z,101662.02
2018-08-19T03:32:31.996Z,101657.03
2018-08-19T03:35:34.607Z,101655.19
2018-08-19T03:38:11.197Z,101657.41
2018-08-19T03:40:39.524Z,101659.81
2018-08-19T03:43:08.041Z,101656.02
2018-08-19T03:45:36.382Z,101660.45
2018-08-19T03:48:05.442Z,101658.30
2018-08-19T03:50:36.826Z,101662.37
2018-08-19T03:53:05.365Z,101660.24
2018-08-19T03:55:34.413Z,101660.04
2018-08-19T03:58:04.926Z,101669.16
2018-08-19T04:00:34.444Z,101667.09
2018-08-19T04:03:12.073Z,101667.41
2018-08-19T04:05:44.891Z,101674.19
2018-08-19T04:08:14.287Z,101672.45
2018-08-19T04:10:43.837Z,101674.19
2018-08-19T04:13:26.413Z,101680.87
2018-08-19T04:15:56.976Z,101684.66
2018-08-19T04:18:30.751Z,101685.43
2018-08-19T04:21:00.657Z,101686.23
2018-08-19T04:23:29.746Z,101680.22
2018-08-19T04:25:58.069Z,101681.36
2018-08-19T04:28:26.408Z,101681.36
2018-08-19T04:30:56.671Z,101687.66
2018-08-19T04:33:30.210Z,101688.84
2018-08-19T04:35:58.600Z,101691.08
2018-08-19T04:38:28.084Z,101691.08
2018-08-19T04:40:57.046Z,101695.73
2018-08-19T04:43:28.393Z,101697.20
2018-08-19T04:45:56.771Z,101701.49
2018-08-19T04:48:26.593Z,101698.68
2018-08-19T04:50:56.297Z,101698.34
2018-08-19T04:53:24.680Z,101700.02
2018-08-19T04:55:53.872Z,101697.80
2018-08-19T04:58:22.292Z,101700.34
2018-08-19T05:00:50.702Z,101697.67
2018-08-19T05:03:19.119Z,101703.14
2018-08-19T05:05:47.492Z,101694.13
2018-08-19T05:08:15.984Z,101696.88
2018-08-19T05:10:44.254Z,101698.13
2018-08-19T05:13:13.141Z,101702.62
2018-08-19T05:15:42.344Z,101696.52
2018-08-19T05:18:10.748Z,101707.55
2018-08-19T05:20:39.203Z,101693.76
2018-08-19T05:23:08.092Z,101700.58
2018-08-19T05:25:51.189Z,101698.27
2018-08-19T05:28:19.749Z,101691.39
2018-08-19T05:30:48.281Z,101693.45
2018-08-19T05:33:16.616Z,101695.39
2018-08-19T05:35:44.932Z,101697.36
2018-08-19T05:38:13.328Z,101701.14
2018-08-19T05:40:46.852Z,101700.47
2018-08-19T05:43:15.252Z,101698.91
2018-08-19T05:45:50.665Z,101700.77
2018-08-19T05:48:19.015Z,101697.67
2018-08-19T05:50:47.350Z,101694.53
2018-08-19T05:53:15.699Z,101690.75
2018-08-19T05:55:44.199Z,101687.41
2018-08-19T05:58:12.533Z,101702.08
2018-08-19T06:00:44.084Z,101700.28
2018-08-19T06:03:12.435Z,101702.67
2018-08-19T06:05:40.784Z,101706.61
2018-08-19T06:08:10.148Z,101703.77
2018-08-19T06:10:39.064Z,101706.56
2018-08-19T06:13:08.678Z,101699.97
2018-08-19T06:15:37.379Z,101707.88
2018-08-19T06:18:05.868Z,101702.89
2018-08-19T06:20:34.535Z,101701.33
2018-08-19T06:23:02.909Z,101699.71
2018-08-19T06:25:31.287Z,101704.86
2018-08-19T06:27:59.835Z,101705.47
2018-08-19T06:30:28.319Z,101702.72
2018-08-19T06:32:56.699Z,101703.62
2018-08-19T06:35:25.077Z,101706.06
2018-08-19T06:37:53.504Z,101710.45
2018-08-19T06:40:23.169Z,101713.09
2018-08-19T06:42:51.521Z,101713.26
2018-08-19T06:45:19.922Z,101707.35
2018-08-19T06:47:48.339Z,101702.34
2018-08-19T06:50:39.040Z,101696.71
2018-08-19T06:53:07.435Z,101696.51
2018-08-19T06:55:36.277Z,101694.41
2018-08-19T06:58:04.939Z,101693.69
2018-08-19T07:00:33.732Z,101696.81
2018-08-19T07:03:03.541Z,101695.11
2018-08-19T07:05:32.554Z,101686.33
2018-08-19T07:08:01.161Z,101694.52
2018-08-19T07:10:38.256Z,101693.09
2018-08-19T07:13:09.170Z,101694.58
2018-08-19T07:15:38.746Z,101684.63
2018-08-19T07:18:08.747Z,101691.11
2018-08-19T07:20:37.590Z,101698.55
2018-08-19T07:23:06.411Z,101699.34
2018-08-19T07:25:34.796Z,101690.92
2018-08-19T07:28:03.159Z,101690.03
2018-08-19T07:30:31.562Z,101690.94
2018-08-19T07:32:59.948Z,101685.77
2018-08-19T07:35:28.299Z,101688.05
2018-08-19T07:37:56.649Z,101684.09
2018-08-19T07:40:25.029Z,101683.14
2018-08-19T07:42:53.376Z,101683.84
2018-08-19T07:45:21.757Z,101687.32
2018-08-19T07:47:50.115Z,101684.34
2018-08-19T07:50:18.480Z,101685.30
2018-08-19T07:52:46.856Z,101678.41
2018-08-19T07:55:15.242Z,101677.50
2018-08-19T07:57:43.654Z,101674.53
2018-08-19T08:00:12.673Z,101680.48
2018-08-19T08:02:41.107Z,101674.11
2018-08-19T08:05:10.661Z,101672.73
2018-08-19T08:07:43.338Z,101676.88
2018-08-19T08:10:11.777Z,101675.83
2018-08-19T08:12:40.212Z,101669.67
2018-08-19T08:15:08.883Z,101670.37
2018-08-19T08:17:38.376Z,101670.67
2018-08-19T08:20:07.539Z,101671.13
2018-08-19T08:22:36.874Z,101663.73
2018-08-19T08:25:07.247Z,101660.80
2018-08-19T08:27:36.718Z,101656.20
2018-08-19T08:30:09.697Z,101645.94
2018-08-19T08:32:38.519Z,101654.12
2018-08-19T08:35:07.843Z,101655.48
2018-08-19T08:37:36.240Z,101646.89
2018-08-19T08:40:10.493Z,101647.16
2018-08-19T08:42:43.336Z,101644.59
2018-08-19T08:45:13.106Z,101645.18
2018-08-19T08:47:41.745Z,101650.79
2018-08-19T08:50:11.472Z,101647.17
2018-08-19T08:52:42.306Z,101649.08
2018-08-19T08:55:11.494Z,101647.28
2018-08-19T08:57:39.860Z,101641.41
2018-08-19T09:00:09.812Z,101641.31
2018-08-19T09:02:38.194Z,101645.23
2018-08-19T09:05:09.208Z,101644.30
2018-08-19T09:07:37.614Z,101640.22
2018-08-19T09:10:06.075Z,101637.65
2018-08-19T09:12:45.213Z,101629.85
2018-08-19T09:15:13.632Z,101630.44
2018-08-19T09:17:42.062Z,101627.20
2018-08-19T09:20:11.155Z,101620.03
2018-08-19T09:22:39.608Z,101623.54
2018-08-19T09:25:09.080Z,101615.45
2018-08-19T09:27:38.339Z,101619.64
2018-08-19T09:30:07.771Z,101622.93
2018-08-19T09:32:50.243Z,101616.78
2018-08-19T09:35:18.620Z,101615.44
2018-08-19T09:37:47.005Z,101613.59
2018-08-19T09:40:15.401Z,101611.07
2018-08-19T09:42:43.773Z,101603.16
2018-08-19T09:45:12.153Z,101607.27
2018-08-19T09:47:40.602Z,101608.23
2018-08-19T09:50:08.996Z,101603.58
2018-08-19T09:52:37.374Z,101598.28
2018-08-19T09:55:09.852Z,101598.20
2018-08-19T09:57:42.697Z,101592.19
2018-08-19T10:00:12.719Z,101598.95
2018-08-19T10:02:46.474Z,101587.55
2018-08-19T10:05:19.048Z,101587.27
2018-08-19T10:07:47.471Z,101584.67
2018-08-19T10:10:15.898Z,101579.64
2018-08-19T10:12:45.042Z,101577.14
2018-08-19T10:15:13.437Z,101583.11
2018-08-19T10:17:41.856Z,101571.27
2018-08-19T10:20:10.252Z,101572.77
2018-08-19T10:22:41.944Z,101579.75
2018-08-19T10:25:14.979Z,101573.61
2018-08-19T10:27:44.963Z,101569.23
2018-08-19T10:30:13.615Z,101570.13
2018-08-19T10:32:42.075Z,101563.48
2018-08-19T10:35:15.729Z,101565.70
2018-08-19T10:37:44.123Z,101561.45
2018-08-19T10:40:12.545Z,101563.88
2018-08-19T10:42:41.159Z,101561.49
2018-08-19T10:45:14.932Z,101555.13
2018-08-19T10:47:43.615Z,101548.73
2018-08-19T10:50:11.979Z,101548.87
2018-08-19T10:52:41.927Z,101540.52
2018-08-19T10:55:11.454Z,101539.03
2018-08-19T10:57:40.033Z,101536.28
2018-08-19T11:00:13.601Z,101538.83
2018-08-19T11:02:42.224Z,101532.23
2018-08-19T11:05:10.699Z,101526.72
2018-08-19T11:07:39.073Z,101528.43
2018-08-19T11:10:28.579Z,101524.57
2018-08-19T11:12:58.295Z,101524.58
2018-08-19T11:15:53.336Z,101519.48
2018-08-19T11:18:30.573Z,101518.34
2018-08-19T11:21:05.257Z,101517.72
2018-08-19T11:23:40.886Z,101512.19
2018-08-19T11:26:09.793Z,101513.16
2018-08-19T11:28:40.360Z,101508.38
2018-08-19T11:31:22.092Z,101504.98
2018-08-19T11:33:51.332Z,101500.81
2018-08-19T11:36:20.624Z,101503.00
2018-08-19T11:38:51.986Z,101497.51
2018-08-19T11:41:20.892Z,101507.78
2018-08-19T11:43:50.182Z,101500.86
2018-08-19T11:46:18.564Z,101488.41
2018-08-19T11:48:54.944Z,101485.33
2018-08-19T11:51:37.575Z,101485.34
2018-08-19T11:54:06.033Z,101482.59
2018-08-19T11:56:34.561Z,101484.95
2018-08-19T11:59:02.993Z,101488.04
2018-08-19T12:01:31.389Z,101486.66
2018-08-19T12:04:09.248Z,101484.95
2018-08-19T12:06:37.616Z,101487.52
2018-08-19T12:09:08.688Z,101480.78
2018-08-19T12:11:38.420Z,101476.75
2018-08-19T12:14:08.721Z,101472.71
2018-08-19T12:16:43.374Z,101466.11
2018-08-19T12:19:17.057Z,101465.67
2018-08-19T12:21:51.277Z,101464.99
2018-08-19T12:24:22.670Z,101458.55
2018-08-19T12:26:53.139Z,101461.64
2018-08-19T12:29:22.029Z,101451.95
2018-08-19T12:31:52.268Z,101452.70
2018-08-19T12:34:20.646Z,101445.40
2018-08-19T12:36:49.060Z,101440.87
2018-08-19T12:39:17.521Z,101439.94
2018-08-19T12:41:51.018Z,101432.15
2018-08-19T12:44:19.388Z,101432.95
2018-08-19T12:47:02.919Z,101425.53
2018-08-19T12:49:35.079Z,101424.46
2018-08-19T12:52:03.530Z,101420.82
2018-08-19T12:54:31.963Z,101414.98
2018-08-19T12:57:00.391Z,101415.27
2018-08-19T12:59:28.840Z,101412.98
2018-08-19T13:01:57.201Z,101401.52
2018-08-19T13:04:25.583Z,101402.46
2018-08-19T13:07:07.986Z,101402.30
2018-08-19T13:09:36.429Z,101396.14
2018-08-19T13:12:06.872Z,101392.02
2018-08-19T13:14:35.277Z,101386.84
2018-08-19T13:17:03.700Z,101376.16
2018-08-19T13:19:32.637Z,101376.88
2018-08-19T13:22:01.828Z,101376.16
2018-08-19T13:24:34.371Z,101371.48
2018-08-19T13:27:03.097Z,101373.23
2018-08-19T13:29:31.871Z,101365.81
2018-08-19T13:32:00.265Z,101368.23
2018-08-19T13:34:29.047Z,101362.72
2018-08-19T13:36:57.974Z,101353.75
2018-08-19T13:39:26.923Z,101350.97
2018-08-19T13:41:55.517Z,101344.05
2018-08-19T13:44:23.988Z,101341.97
2018-08-19T13:46:52.380Z,101349.03
2018-08-19T13:49:23.592Z,101331.94
2018-08-19T13:51:52.200Z,101329.70
2018-08-19T13:54:21.602Z,101331.42
2018-08-19T13:56:50.037Z,101331.45
2018-08-19T13:59:18.680Z,101325.03
2018-08-19T14:01:47.043Z,101316.63
2018-08-19T14:04:15.527Z,101308.17
2018-08-19T14:06:45.047Z,101303.31
2018-08-19T14:09:13.948Z,101308.15
2018-08-19T14:11:42.381Z,101301.31
2018-08-19T14:14:11.408Z,101296.81
2018-08-19T14:16:39.845Z,101290.56
2018-08-19T14:19:08.706Z,101291.29
2018-08-19T14:21:37.059Z,101292.63
2018-08-19T14:24:05.500Z,101291.23
2018-08-19T14:26:34.453Z,101289.16
2018-08-19T14:29:03.004Z,101284.50
2018-08-19T14:31:31.688Z,101285.73
2018-08-19T14:34:00.350Z,101285.34
2018-08-19T14:36:28.814Z,101280.82
2018-08-19T14:38:57.215Z,101276.86
2018-08-19T14:41:25.596Z,101274.31
2018-08-19T14:44:00.347Z,101273.87
2018-08-19T14:46:29.636Z,101274.71
2018-08-19T14:48:59.160Z,101261.03
2018-08-19T14:51:28.687Z,101262.81
2018-08-19T14:54:20.671Z,101268.60
2018-08-19T14:56:49.225Z,101264.33
2018-08-19T14:59:20.122Z,101258.62
2018-08-19T15:01:48.460Z,101253.23
2018-08-19T15:04:17.795Z,101251.17
2018-08-19T15:06:47.101Z,101246.48
2018-08-19T15:09:28.163Z,101252.88
2018-08-19T15:12:05.161Z,101244.93
2018-08-19T15:14:34.834Z,101238.23
2018-08-19T15:17:03.197Z,101234.25
2018-08-19T15:19:31.550Z,101233.72
2018-08-19T15:21:59.896Z,101234.59
2018-08-19T15:24:28.204Z,101228.88
2018-08-19T15:26:56.525Z,101233.20
2018-08-19T15:29:30.670Z,101227.31
2018-08-19T15:32:02.465Z,101223.70
2018-08-19T15:34:30.839Z,101223.87
2018-08-19T15:36:59.215Z,101211.45
2018-08-19T15:39:27.558Z,101211.97
2018-08-19T15:41:55.899Z,101211.28
2018-08-19T15:44:24.245Z,101206.98
2018-08-19T15:46:52.627Z,101206.27
2018-08-19T15:49:22.204Z,101205.06
2018-08-19T15:51:50.578Z,101203.48
2018-08-19T15:54:18.916Z,101197.98
2018-08-19T15:56:47.297Z,101204.16
2018-08-19T15:59:15.704Z,101198.64
2018-08-19T16:01:44.239Z,101201.27
2018-08-19T16:04:19.720Z,101201.08
2018-08-19T16:06:50.386Z,101204.01
2018-08-19T16:09:21.126Z,101197.64
2018-08-19T16:11:50.325Z,101194.69
2018-08-19T16:14:30.439Z,101197.62
2018-08-19T16:17:00.089Z,101194.48
2018-08-19T16:19:28.458Z,101193.47
2018-08-19T16:21:57.953Z,101186.38
2018-08-19T16:24:26.859Z,101189.13
2018-08-19T16:26:55.242Z,101184.94
2018-08-19T16:29:23.619Z,101180.03
2018-08-19T16:31:52.055Z,101177.09
2018-08-19T16:34:20.375Z,101175.38
2018-08-19T16:36:49.047Z,101175.36
2018-08-19T16:39:18.313Z,101172.38
2018-08-19T16:41:46.616Z,101165.27
2018-08-19T16:44:14.993Z,101170.44
2018-08-19T16:46:43.359Z,101168.00
2018-08-19T16:49:11.727Z,101164.19
2018-08-19T16:51:40.056Z,101168.18
2018-08-19T16:54:08.729Z,101165.92
2018-08-19T16:56:37.047Z,101157.63
2018-08-19T16:59:05.441Z,101160.53
2018-08-19T17:01:33.778Z,101163.46
2018-08-19T17:04:02.127Z,101158.58
2018-08-19T17:06:30.477Z,101154.80
2018-08-19T17:08:58.804Z,101158.56
2018-08-19T17:11:27.139Z,101161.28
2018-08-19T17:13:55.474Z,101157.84
2018-08-19T17:16:23.793Z,101158.47
2018-08-19T17:18:52.124Z,101157.44
2018-08-19T17:21:20.470Z,101159.64
2018-08-19T17:23:49.030Z,101160.13
2018-08-19T17:26:23.739Z,101161.48
2018-08-19T17:28:52.396Z,101154.05
2018-08-19T17:31:21.064Z,101158.14
2018-08-19T17:33:49.412Z,101155.36
2018-08-19T17:36:26.873Z,101160.14
2018-08-19T17:38:55.214Z,101159.94
2018-08-19T17:41:23.581Z,101161.66
2018-08-19T17:43:51.957Z,101155.09
2018-08-19T17:46:20.567Z,101149.38
2018-08-19T17:48:48.921Z,101157.98
2018-08-19T17:51:35.528Z,101159.84
2018-08-19T17:54:07.174Z,101151.72
2018-08-19T17:56:35.533Z,101154.27
2018-08-19T17:59:04.969Z,101155.12
2018-08-19T18:01:33.286Z,101150.58
2018-08-19T18:04:01.624Z,101158.14
2018-08-19T18:06:29.996Z,101153.94
2018-08-19T18:08:58.342Z,101156.99
2018-08-19T18:11:26.759Z,101158.84
2018-08-19T18:13:55.139Z,101152.95
2018-08-19T18:16:23.516Z,101157.52
2018-08-19T18:18:51.995Z,101155.24
2018-08-19T18:21:20.335Z,101158.12
2018-08-19T18:23:49.598Z,101165.45
2018-08-19T18:26:17.953Z,101161.42
2018-08-19T18:28:48.045Z,101161.89
2018-08-19T18:31:20.517Z,101161.15
2018-08-19T18:34:07.152Z,101155.22
2018-08-19T18:36:36.172Z,101160.48
2018-08-19T18:39:06.511Z,101159.84
2018-08-19T18:41:37.139Z,101158.06
2018-08-19T18:44:06.949Z,101157.28
2018-08-19T18:46:35.733Z,101161.00
2018-08-19T18:49:12.615Z,101159.58
2018-08-19T18:51:42.440Z,101161.91
2018-08-19T18:54:32.543Z,101161.12
2018-08-19T18:57:03.963Z,101166.22
2018-08-19T18:59:32.318Z,101164.05
2018-08-19T19:02:01.952Z,101162.78
2018-08-19T19:04:30.322Z,101156.88
2018-08-19T19:06:58.753Z,101156.09
2018-08-19T19:09:39.111Z,101155.16
2018-08-19T19:12:07.520Z,101154.20
2018-08-19T19:14:36.178Z,101154.78
2018-08-19T19:17:04.541Z,101160.02
2018-08-19T19:19:37.036Z,101153.44
2018-08-19T19:22:05.359Z,101147.82
2018-08-19T19:24:37.743Z,101155.53
2018-08-19T19:27:06.211Z,101149.19
2018-08-19T19:29:34.571Z,101155.69
2018-08-19T19:32:14.248Z,101156.48
2018-08-19T19:34:42.594Z,101150.58
2018-08-19T19:37:11.071Z,101153.75
2018-08-19T19:39:39.525Z,101147.46
2018-08-19T19:42:10.822Z,101144.80
2018-08-19T19:44:39.318Z,101143.36
2018-08-19T19:47:08.994Z,101139.53
2018-08-19T19:49:49.400Z,101134.96
2018-08-19T19:52:17.774Z,101138.48
2018-08-19T19:54:46.096Z,101139.27
2018-08-19T19:57:14.431Z,101135.75
2018-08-19T19:59:42.768Z,101132.05
2018-08-19T20:02:17.054Z,101131.45
2018-08-19T20:04:45.771Z,101136.50
2018-08-19T20:07:14.379Z,101133.33
2018-08-19T20:09:42.840Z,101130.52
2018-08-19T20:12:16.524Z,101135.91
2018-08-19T20:14:49.243Z,101125.50
2018-08-19T20:17:18.265Z,101127.30
2018-08-19T20:19:46.651Z,101129.45
2018-08-19T20:22:17.097Z,101131.75
2018-08-19T20:24:45.508Z,101136.28
2018-08-19T20:27:14.013Z,101133.48
2018-08-19T20:29:42.330Z,101133.31
2018-08-19T20:32:10.672Z,101129.52
2018-08-19T20:34:39.557Z,101131.95
2018-08-19T20:37:07.876Z,101130.10
2018-08-19T20:39:36.207Z,101131.38
2018-08-19T20:42:04.562Z,101124.84
2018-08-19T20:44:32.892Z,101129.71
2018-08-19T20:47:01.250Z,101123.28
2018-08-19T20:49:29.596Z,101129.02
2018-08-19T20:51:57.994Z,101121.73
2018-08-19T20:54:26.328Z,101118.90
2018-08-19T20:56:55.304Z,101126.12
2018-08-19T20:59:28.958Z,101120.44
2018-08-19T21:01:57.303Z,101120.45
2018-08-19T21:04:25.630Z,101113.48
2018-08-19T21:06:54.203Z,101113.27
2018-08-19T21:09:22.724Z,101111.30
2018-08-19T21:11:51.458Z,101113.80
2018-08-19T21:14:20.454Z,101116.78
2018-08-19T21:16:49.184Z,101119.42
2018-08-19T21:19:17.526Z,101117.34
2018-08-19T21:21:45.848Z,101123.42
2018-08-19T21:24:14.247Z,101125.08
2018-08-19T21:26:45.961Z,101118.86
2018-08-19T21:29:14.278Z,101120.78
2018-08-19T21:31:42.625Z,101116.78
2018-08-19T21:34:10.972Z,101120.28
2018-08-19T21:36:39.316Z,101117.84
2018-08-19T21:39:08.459Z,101117.34
2018-08-19T21:41:46.762Z,101115.61
2018-08-19T21:44:15.574Z,101121.44
2018-08-19T21:46:43.921Z,101121.34
2018-08-19T21:49:12.642Z,101121.37
2018-08-19T21:51:41.059Z,101117.63
2018-08-19T21:54:11.185Z,101118.39
2018-08-19T21:56:39.823Z,101114.19
2018-08-19T21:59:13.604Z,101116.91
2018-08-19T22:01:50.148Z,101113.36
2018-08-19T22:04:18.933Z,101116.34
2018-08-19T22:06:47.498Z,101118.31
2018-08-19T22:09:29.705Z,101127.38
2018-08-19T22:11:59.074Z,101129.73
2018-08-19T22:14:27.598Z,101123.52
2018-08-19T22:16:58.538Z,101126.90
2018-08-19T22:19:27.088Z,101131.24
2018-08-19T22:21:55.491Z,101127.90
2018-08-19T22:24:23.884Z,101127.06
2018-08-19T22:26:52.415Z,101130.16
2018-08-19T22:29:21.731Z,101120.34
2018-08-19T22:31:50.663Z,101122.86
2018-08-19T22:34:19.039Z,101118.50
2018-08-19T22:36:47.470Z,101117.78
2018-08-19T22:39:17.129Z,101112.42
2018-08-19T22:41:48.614Z,101118.02
2018-08-19T22:44:17.364Z,101112.58
2018-08-19T22:46:45.849Z,101110.72
2018-08-19T22:49:14.208Z,101111.72
2018-08-19T22:51:42.586Z,101108.25
2018-08-19T22:54:10.919Z,101110.11
2018-08-19T22:56:39.256Z,101112.47
2018-08-19T22:59:07.680Z,101106.41
2018-08-19T23:01:41.376Z,101102.70
2018-08-19T23:04:09.730Z,101105.77
2018-08-19T23:06:38.064Z,101106.17
2018-08-19T23:09:07.223Z,101100.81
2018-08-19T23:11:41.000Z,101106.79
2018-08-19T23:14:20.672Z,101094.75
2018-08-19T23:16:48.982Z,101092.89
2018-08-19T23:19:19.560Z,101095.70
2018-08-19T23:21:47.899Z,101097.59
2018-08-19T23:24:16.246Z,101096.22
2018-08-19T23:26:44.547Z,101102.05
2018-08-19T23:29:12.880Z,101101.06
2018-08-19T23:31:41.253Z,101098.46
2018-08-19T23:34:09.629Z,101097.21
2018-08-19T23:36:37.947Z,101099.94
2018-08-19T23:39:08.089Z,101113.31
2018-08-19T23:41:36.406Z,101113.81
2018-08-19T23:44:04.775Z,101117.41
2018-08-19T23:46:33.141Z,101124.72
2018-08-19T23:49:01.477Z,101128.31
2018-08-19T23:51:30.799Z,101120.77
2018-08-19T23:53:59.989Z,101130.41
2018-08-19T23:56:28.660Z,101120.50
2018-08-19T23:58:57.377Z,101119.50
